createdAt,value
2023-03-25T02:07:10.740Z,93973.00
2023-03-25T02:11:10.701Z,93981.00
2023-03-25T02:15:10.697Z,93983.00
2023-03-25T02:19:10.643Z,93981.00
2023-03-25T02:23:10.795Z,93979.00
2023-03-25T02:27:10.981Z,93975.00
2023-03-25T02:31:11.183Z,93973.00
2023-03-25T02:35:11.317Z,93971.00
2023-03-25T02:39:11.588Z,93970.00
2023-03-25T02:43:11.668Z,93964.00
2023-03-25T02:47:11.878Z,93966.00
2023-03-25T02:51:12.067Z,93966.00
2023-03-25T02:55:12.265Z,93973.00
2023-03-25T02:59:12.487Z,93971.00
2023-03-25T03:03:12.839Z,93968.00
2023-03-25T03:07:12.893Z,93966.00
2023-03-25T03:11:13.141Z,93964.00
2023-03-25T03:15:13.266Z,93966.00
2023-03-25T03:27:13.622Z,93971.00
2023-03-25T03:31:13.644Z,93981.00
2023-03-25T03:39:13.562Z,93977.00
2023-03-25T03:43:13.738Z,93971.00
2023-03-25T03:47:13.942Z,93966.00
2023-03-25T03:51:14.117Z,93966.00
2023-03-25T03:55:14.302Z,93960.00
2023-03-25T03:59:14.521Z,93977.00
2023-03-25T17:27:25.311Z,94017.00
2023-03-25T17:31:25.506Z,94019.00
2023-03-25T17:35:25.678Z,94021.00
2023-03-25T17:39:25.783Z,94023.00
2023-03-25T17:43:25.956Z,94032.00
2023-03-25T17:47:26.148Z,94040.00
2023-03-25T17:51:26.318Z,94038.00
2023-03-25T17:55:26.501Z,94038.00
2023-03-25T17:59:26.691Z,94036.00
2023-03-25T18:03:26.881Z,94040.00
2023-03-25T18:07:27.054Z,94048.00
2023-03-25T18:11:27.249Z,94056.00
2023-03-25T18:55:28.041Z,94068.00
2023-03-25T18:59:27.998Z,94075.00
2023-03-25T19:03:27.971Z,94079.00
2023-03-25T19:07:27.913Z,94083.00
2023-03-25T19:11:27.886Z,94097.00
2023-03-25T19:15:27.870Z,94097.00
2023-03-25T19:19:28.074Z,94099.00
2023-03-25T19:23:28.270Z,94103.00
2023-03-25T19:27:28.473Z,94107.00
2023-03-25T19:31:28.778Z,94107.00
2023-03-25T19:35:28.891Z,94107.00
2023-03-25T19:39:29.099Z,94105.00
2023-03-25T19:43:29.332Z,94111.00
2023-03-25T19:47:29.523Z,94109.00
2023-03-25T19:51:29.736Z,94111.00
2023-03-25T19:55:29.933Z,94105.00
2023-03-25T19:59:30.140Z,94107.00
2023-03-25T20:03:30.436Z,94101.00
2023-03-25T20:07:30.342Z,94095.00
2023-03-25T20:11:30.307Z,94095.00
2023-03-25T20:15:30.256Z,94093.00
2023-03-25T20:19:30.236Z,94085.00
2023-03-25T20:23:30.207Z,94087.00
2023-03-25T20:27:30.154Z,94093.00
2023-03-25T20:31:30.189Z,94097.00
2023-03-25T20:35:30.115Z,94107.00
2023-03-25T20:39:30.052Z,94122.00
2023-03-25T20:43:30.042Z,94126.00
2023-03-25T20:47:30.110Z,94130.00
2023-03-25T20:51:30.044Z,94138.00
2023-03-25T20:55:30.022Z,94130.00
2023-03-25T20:59:29.974Z,94136.00
2023-03-25T21:03:29.942Z,94136.00
2023-03-25T21:07:29.906Z,94130.00
2023-03-25T21:11:29.997Z,94111.00
2023-03-25T21:15:29.846Z,94107.00
2023-03-25T21:19:29.798Z,94093.00
2023-03-25T21:23:29.747Z,94101.00
2023-03-25T21:27:39.041Z,94107.00
2023-03-25T21:31:30.751Z,94105.00
2023-03-25T21:35:29.680Z,94118.00
2023-03-25T21:39:29.862Z,94120.00
2023-03-25T21:43:30.072Z,94107.00
2023-03-25T21:47:30.333Z,94091.00
2023-03-25T21:51:30.700Z,94081.00
2023-03-25T21:55:30.462Z,94081.00
2023-03-25T21:59:30.413Z,94081.00
2023-03-25T22:03:30.558Z,94077.00
2023-03-25T22:07:30.352Z,94073.00
2023-03-25T22:11:30.299Z,94077.00
2023-03-25T22:15:30.251Z,94083.00
2023-03-25T22:19:30.235Z,94091.00
2023-03-25T22:23:30.196Z,94093.00
2023-03-25T22:27:30.159Z,94099.00
2023-03-25T22:31:30.104Z,94105.00
2023-03-25T22:35:30.205Z,94095.00
2023-03-25T22:39:30.194Z,94107.00
2023-03-25T22:43:30.253Z,94099.00
2023-03-25T22:47:30.391Z,94095.00
2023-03-25T22:51:30.464Z,94091.00
2023-03-25T22:55:30.566Z,94085.00
2023-03-25T22:59:30.639Z,94079.00
2023-03-25T23:03:30.764Z,94081.00
2023-03-25T23:07:30.693Z,94077.00
2023-03-25T23:11:30.760Z,94079.00
2023-03-25T23:15:30.752Z,94070.00
2023-03-25T23:19:30.797Z,94056.00
2023-03-25T23:23:30.868Z,94056.00
2023-03-25T23:27:30.876Z,94056.00
2023-03-25T23:31:30.910Z,94056.00
2023-03-25T23:35:30.929Z,94052.00
2023-03-25T23:39:30.897Z,94058.00
2023-03-25T23:43:30.929Z,94066.00
2023-03-25T23:47:30.942Z,94073.00
2023-03-25T23:51:30.932Z,94079.00
2023-03-25T23:55:30.969Z,94083.00
2023-03-25T23:59:30.937Z,94075.00
